Delhi, Canada
Current Conditions -  °F | °C
As of 3:00 PM on Friday 19 Dec 2014 (Local Time) from CYXU Reporting Station
Few Clouds Few Clouds  
Wind Chill: -8°   Ceiling: Unl
Heat Index: -2°   Visibility: 15mi
Dew Point: -6°   Wind: 12mph
Humidity: 74%   Direction: 340°NNW
Pressure: 30.2"   Gusts: NA
Location:  42.85°N, 80.49°W
Report Text: CYXU 192000Z 34010KT 15SM FEW025 FEW120 M02/M06 A3020 RMK SC1AC1 SLP242
Loading
Personal Weather Stations






























Interactive Weather Map New forecast layout! Learn more

10-Day Weather Forecast

Advertisements
Track Severe Weather on mobile